createdAt,value
2024-03-02T00:00:00.224Z,7.3
2024-03-02T00:15:00.592Z,7.2
2024-03-02T00:30:00.601Z,7.1
2024-03-02T00:45:00.453Z,7.1
2024-03-02T01:00:00.224Z,7.1
2024-03-02T01:15:00.234Z,7.1
2024-03-02T01:30:00.256Z,7
2024-03-02T01:45:00.278Z,7.2
2024-03-02T02:00:00.256Z,7.2
2024-03-02T02:15:00.231Z,7.2
2024-03-02T02:30:00.223Z,7.1
2024-03-02T02:45:00.251Z,6.8
2024-03-02T03:00:00.499Z,6.7
2024-03-02T03:15:00.290Z,6.7
2024-03-02T03:30:00.291Z,6.7
2024-03-02T03:45:00.198Z,6.3
2024-03-02T04:00:00.314Z,6.3
2024-03-02T04:15:00.202Z,6.3
2024-03-02T04:30:00.314Z,6
2024-03-02T04:45:00.228Z,5.9
2024-03-02T05:00:00.332Z,5.9
2024-03-02T05:15:00.341Z,5.7
2024-03-02T05:30:00.265Z,5.8
2024-03-02T05:45:00.267Z,6.3
2024-03-02T06:00:00.340Z,6.3
2024-03-02T06:15:00.233Z,6.3
2024-03-02T06:30:00.302Z,6.3
2024-03-02T06:45:00.246Z,6.3
2024-03-02T07:00:00.435Z,6.4
2024-03-02T07:15:00.232Z,6.5
2024-03-02T07:30:00.236Z,6.6
2024-03-02T07:45:00.231Z,7
2024-03-02T08:00:00.230Z,7.5
2024-03-02T08:15:00.210Z,8.2
2024-03-02T08:30:00.263Z,8.3
2024-03-02T08:45:00.219Z,9.4
2024-03-02T09:00:00.229Z,9.8
2024-03-02T09:15:00.264Z,10
2024-03-02T09:30:00.374Z,10.2
2024-03-02T09:45:00.260Z,11.4
2024-03-02T10:00:00.297Z,11.7
2024-03-02T10:15:00.283Z,12.1
2024-03-02T10:30:00.296Z,12.4
2024-03-02T10:45:00.267Z,12.8
2024-03-02T11:00:00.238Z,12.5
2024-03-02T11:15:00.197Z,12.7
2024-03-02T11:30:00.401Z,12.7
2024-03-02T11:45:00.243Z,13.6
2024-03-02T12:00:00.241Z,13.6
2024-03-02T12:15:00.242Z,13.8
2024-03-02T12:30:00.344Z,13.9
2024-03-02T12:45:00.327Z,13.9
2024-03-02T13:00:00.314Z,13.8
2024-03-02T13:15:00.220Z,14.6
2024-03-02T13:30:00.389Z,14.4
2024-03-02T13:45:00.199Z,14
2024-03-02T14:00:00.262Z,14.6
2024-03-02T14:15:00.193Z,13.9
2024-03-02T14:30:00.257Z,13.9
2024-03-02T14:45:00.242Z,14.1
2024-03-02T15:00:00.562Z,14
2024-03-02T15:15:00.254Z,13.8
2024-03-02T15:30:00.378Z,13.7
2024-03-02T15:45:00.646Z,13.7
2024-03-02T16:00:00.281Z,13.8
2024-03-02T16:15:00.216Z,13.8
2024-03-02T16:30:00.360Z,13.5
2024-03-02T16:45:00.239Z,13.2
2024-03-02T17:00:00.360Z,13.2
2024-03-02T17:15:00.220Z,12.7
2024-03-02T17:30:00.329Z,12.5
2024-03-02T17:45:00.255Z,12.3
2024-03-02T18:00:00.275Z,12.3
2024-03-02T18:15:00.208Z,11.6
2024-03-02T18:30:00.421Z,11.6
2024-03-02T18:45:00.422Z,11.6
2024-03-02T19:00:00.262Z,11.5
2024-03-02T19:15:00.242Z,11.1
2024-03-02T19:30:00.221Z,11.1
2024-03-02T19:45:00.232Z,10.9
2024-03-02T20:00:00.251Z,10.9
2024-03-02T20:15:00.247Z,10.7
2024-03-02T20:30:00.386Z,10.7
2024-03-02T20:45:00.259Z,10.4
2024-03-02T21:00:00.334Z,10.2
2024-03-02T21:15:00.243Z,10.3
2024-03-02T21:30:00.354Z,10.3
2024-03-02T21:45:00.244Z,10.1
2024-03-02T23:00:00.266Z,10
2024-03-02T23:15:00.308Z,9.8
2024-03-02T23:30:00.284Z,9.8
2024-03-02T23:45:00.364Z,9.8
